Albatros — DITX — position and weather

sailwx.info

Track history (hours):
 
Tides and Currents Weather Stations Pressure Air Temp Water Temp Dewpoint Dewpoint Depression Visibility Wind Speed Wind Dir Waves Ship Positions

Albatros

Last reported at 2015-May-24 07:26 UTC. Time now 2015-May-24 19:20 UTC.
Position N 54°42' E 013°11'.

Length 16 m.

MMSI: 211226200.

Date/timePositionNaut miles runAvg speedWind from/ knotsBaromVisibWave heightAir tempDewpointWater temp
2015-May-24 07:26N 54°42' E 013°11'3 0.1
2015-May-23 10:10N 54°42' E 013°16'2 2.8
2015-May-23 09:24N 54°42' E 013°12'  
2015-May-16 07:05N 54°38' E 013°11'8 0.4
2015-May-15 13:33N 54°31' E 013°10'3 3.3
2015-May-15 12:33N 54°34' E 013°10'7 6.7
2015-May-15 11:32N 54°41' E 013°12'1 1.0
2015-May-15 10:33N 54°42' E 013°12'0 0.1
2015-May-15 09:34N 54°42' E 013°13'1 1.3
2015-May-15 08:33N 54°41' E 013°10'3 2.8
2015-May-15 07:33N 54°39' E 013°11'1 0.8
2015-May-15 06:33N 54°38' E 013°11'5 5.3
2015-May-15 05:34N 54°33' E 013°08'2 2.2
2015-May-15 04:33N 54°31' E 013°10'0 0.0
2015-May-14 14:06N 54°31' E 013°10'0 0.0
2015-May-14 13:33N 54°31' E 013°10'4 4.1
2015-May-14 12:33N 54°35' E 013°10'7 6.7
2015-May-14 11:31N 54°42' E 013°13'0 0.3
2015-May-14 10:33N 54°42' E 013°12'1 1.1
2015-May-14 09:34N 54°41' E 013°11'0 0.1
2015-May-14 08:33N 54°41' E 013°10'2 2.2
2015-May-14 07:32N 54°39' E 013°11'  
Track history (hours):
 
Tides and Currents Weather Stations Pressure Air Temp Water Temp Dewpoint Dewpoint Depression Visibility Wind Speed Wind Dir Waves Ship Positions

Albatros

Last reported at 2015-May-24 07:26 UTC. Time now 2015-May-24 19:20 UTC.
Position N 54°42' E 013°11'.

Length 16 m.

MMSI: 211226200.

Date/timePositionNaut miles runAvg speedWind from/ knotsBaromVisibWave heightAir tempDewpointWater temp
2015-May-24 07:26N 54°42' E 013°11'3 0.1
2015-May-23 10:10N 54°42' E 013°16'2 2.8
2015-May-23 09:24N 54°42' E 013°12'  
2015-May-16 07:05N 54°38' E 013°11'8 0.4
2015-May-15 13:33N 54°31' E 013°10'3 3.3
2015-May-15 12:33N 54°34' E 013°10'7 6.7
2015-May-15 11:32N 54°41' E 013°12'1 1.0
2015-May-15 10:33N 54°42' E 013°12'0 0.1
2015-May-15 09:34N 54°42' E 013°13'1 1.3
2015-May-15 08:33N 54°41' E 013°10'3 2.8
2015-May-15 07:33N 54°39' E 013°11'1 0.8
2015-May-15 06:33N 54°38' E 013°11'5 5.3
2015-May-15 05:34N 54°33' E 013°08'2 2.2
2015-May-15 04:33N 54°31' E 013°10'0 0.0
2015-May-14 14:06N 54°31' E 013°10'0 0.0
2015-May-14 13:33N 54°31' E 013°10'4 4.1
2015-May-14 12:33N 54°35' E 013°10'7 6.7
2015-May-14 11:31N 54°42' E 013°13'0 0.3
2015-May-14 10:33N 54°42' E 013°12'1 1.1
2015-May-14 09:34N 54°41' E 013°11'0 0.1
2015-May-14 08:33N 54°41' E 013°10'2 2.2
2015-May-14 07:32N 54°39' E 013°11'  

Dump ship's entire track history